Main page
METAR-TAF:

METAR-TAF

Airports :

Bandırma Airport

Bandirma, Turkey

latitude: 40-19N, longitude: 027-58E, elevation: 51 m

Current weather observation

The report was made 14 hours and 5 minutes ago, at 02:19 UTC
Wind 11 kt from the North/Northeast
Temperature 17°C
Humidity 94%
Pressure 1018 hPa
Visibility 10 km or more
Scattered clouds at a height of 900 ft
Broken clouds at a height of 3300 ft
light rain showers

METAR: LTBG 170219Z 02011KT 9999 -SHRA SCT009 BKN033 17/16 Q1018 TEMPO FM0300 5000 BR RMK RWY18 02013KT

Time: 19:24 (16:24 UTC)

Forecast

The report was made 2 hours and 44 minutes ago, at 13:40 UTC
Forecast valid from 17 at 15 UTC to 17 at 24 UTC
Wind 18 kt from the Northeast
Visibility 10 km or more
Scattered clouds at a height of 3500 ft
Broken clouds at a height of 10000 ft

TAF: LTBG 171340Z 1715/1724 04018KT 9999 SCT035 BKN100

Weather observations and forecasts of more than 4000 airports (METAR and TAF reports).

The available stations are represented by yellow and red dots on the map.

Hover mouse over dot to see the name of the station.

Then click to see weather observations and forecasts.

To change the map : click on the green buttons with a black cross to zoom in, on the green button with a dash to zoom out, or on the green arrows for adjacent maps.


METAR-TAF: